createdAt,value
2018-05-10T00:00:19.500Z,13.10
2018-05-10T00:02:47.810Z,13.10
2018-05-10T00:05:15.367Z,13.10
2018-05-10T00:07:42.995Z,13.00
2018-05-10T00:10:10.500Z,13.00
2018-05-10T00:12:38.063Z,13.00
2018-05-10T00:15:05.603Z,13.10
2018-05-10T00:17:33.150Z,13.10
2018-05-10T00:20:00.700Z,13.10
2018-05-10T00:22:28.996Z,12.90
2018-05-10T00:24:57.376Z,12.80
2018-05-10T00:27:24.898Z,12.80
2018-05-10T00:29:52.456Z,12.70
2018-05-10T00:32:20.016Z,12.60
2018-05-10T00:34:47.552Z,12.70
2018-05-10T00:37:15.851Z,12.70
2018-05-10T00:39:43.410Z,12.70
2018-05-10T00:42:10.986Z,12.70
2018-05-10T00:44:38.501Z,12.60
2018-05-10T00:47:06.029Z,12.60
2018-05-10T00:49:33.558Z,12.50
2018-05-10T00:52:01.103Z,12.50
2018-05-10T00:54:41.395Z,12.60
2018-05-10T00:57:09.064Z,12.50
2018-05-10T00:59:36.624Z,12.60
2018-05-10T01:02:04.190Z,12.60
2018-05-10T01:04:31.716Z,12.60
2018-05-10T01:06:59.246Z,12.70
2018-05-10T01:09:26.778Z,12.60
2018-05-10T01:11:54.293Z,12.60
2018-05-10T01:14:21.830Z,12.70
2018-05-10T01:16:49.372Z,12.70
2018-05-10T01:19:16.940Z,12.70
2018-05-10T01:21:44.448Z,12.70
2018-05-10T01:24:12.006Z,12.70
2018-05-10T01:26:39.632Z,12.60
2018-05-10T01:29:07.177Z,12.50
2018-05-10T01:31:35.476Z,12.20
2018-05-10T01:34:03.013Z,12.20
2018-05-10T01:36:31.325Z,12.10
2018-05-10T01:38:58.858Z,12.10
2018-05-10T01:41:27.166Z,12.00
2018-05-10T01:43:54.701Z,12.00
2018-05-10T01:46:23.012Z,11.80
2018-05-10T01:48:50.578Z,11.80
2018-05-10T01:51:18.143Z,11.80
2018-05-10T01:53:45.671Z,11.60
2018-05-10T01:56:14.089Z,11.30
2018-05-10T01:58:41.611Z,11.30
2018-05-10T02:01:09.222Z,11.30
2018-05-10T02:03:36.765Z,11.30
2018-05-10T02:06:04.298Z,11.30
2018-05-10T02:08:32.604Z,11.20
2018-05-10T02:11:01.014Z,11.20
2018-05-10T02:13:28.544Z,11.20
2018-05-10T02:15:56.832Z,11.20
2018-05-10T02:18:25.151Z,11.20
2018-05-10T02:20:52.668Z,11.20
2018-05-10T02:23:20.987Z,11.40
2018-05-10T02:25:48.548Z,11.30
2018-05-10T02:28:16.092Z,11.40
2018-05-10T02:30:44.414Z,11.40
2018-05-10T02:33:11.930Z,11.30
2018-05-10T02:35:40.256Z,11.20
2018-05-10T02:38:07.774Z,11.10
2018-05-10T02:40:36.196Z,11.20
2018-05-10T02:43:03.728Z,11.20
2018-05-10T02:45:32.023Z,11.30
2018-05-10T02:47:59.605Z,11.20
2018-05-10T02:50:27.110Z,11.30
2018-05-10T02:52:55.448Z,11.30
2018-05-10T02:55:22.992Z,11.30
2018-05-10T02:57:51.302Z,11.00
2018-05-10T03:00:18.840Z,11.10
2018-05-10T03:02:46.379Z,10.90
2018-05-10T03:05:13.913Z,10.80
2018-05-10T03:07:41.489Z,10.80
2018-05-10T03:10:09.011Z,10.90
2018-05-10T03:12:36.573Z,10.80
2018-05-10T03:15:04.137Z,10.80
2018-05-10T03:17:31.679Z,10.80
2018-05-10T03:19:59.997Z,10.80
2018-05-10T03:22:27.551Z,10.80
2018-05-10T03:24:55.111Z,10.80
2018-05-10T03:27:22.678Z,10.90
2018-05-10T03:29:50.244Z,10.90
2018-05-10T03:32:17.793Z,11.00
2018-05-10T03:34:45.347Z,11.10
2018-05-10T03:37:13.640Z,11.20
2018-05-10T03:39:41.216Z,11.20
2018-05-10T03:42:08.751Z,11.20
2018-05-10T03:44:37.065Z,11.30
2018-05-10T03:47:04.626Z,11.30
2018-05-10T03:49:32.195Z,11.40
2018-05-10T03:51:59.744Z,11.40
2018-05-10T03:54:27.268Z,11.40
2018-05-10T03:56:54.805Z,11.40
2018-05-10T03:59:22.322Z,11.40
2018-05-10T04:01:50.631Z,11.50
2018-05-10T04:04:29.998Z,11.40
2018-05-10T04:07:10.324Z,11.50
2018-05-10T04:09:49.660Z,11.50
2018-05-10T04:12:17.316Z,11.60
2018-05-10T04:14:44.860Z,11.60
2018-05-10T04:17:13.150Z,11.60
2018-05-10T04:19:40.728Z,11.50
2018-05-10T04:22:08.298Z,11.60
2018-05-10T04:24:35.828Z,11.60
2018-05-10T04:27:04.136Z,11.60
2018-05-10T04:29:31.680Z,11.60
2018-05-10T04:31:59.971Z,11.70
2018-05-10T04:34:27.652Z,11.80
2018-05-10T04:36:55.218Z,11.80
2018-05-10T04:39:22.779Z,11.90
2018-05-10T04:41:50.306Z,12.00
2018-05-10T04:44:17.829Z,12.10
2018-05-10T04:46:45.385Z,12.20
2018-05-10T04:49:12.927Z,12.40
2018-05-10T04:51:40.475Z,12.50
2018-05-10T04:54:08.779Z,12.60
2018-05-10T04:56:36.323Z,12.50
2018-05-10T04:59:04.608Z,12.80
2018-05-10T05:01:32.199Z,12.80
2018-05-10T05:03:59.857Z,12.90
2018-05-10T05:06:27.389Z,13.00
2018-05-10T05:08:55.764Z,13.20
2018-05-10T05:11:23.378Z,13.20
2018-05-10T05:13:50.893Z,13.30
2018-05-10T05:16:18.437Z,13.40
2018-05-10T05:18:45.952Z,13.60
2018-05-10T05:21:13.629Z,13.70
2018-05-10T05:23:41.194Z,13.80
2018-05-10T05:26:08.758Z,13.80
2018-05-10T05:28:36.280Z,13.90
2018-05-10T05:31:04.708Z,14.10
2018-05-10T05:33:32.240Z,14.10
2018-05-10T05:36:00.537Z,14.20
2018-05-10T05:38:28.071Z,14.20
2018-05-10T05:40:55.607Z,14.40
2018-05-10T05:43:23.280Z,14.50
2018-05-10T05:45:50.706Z,14.70
2018-05-10T05:48:18.279Z,14.90
2018-05-10T05:50:45.800Z,15.00
2018-05-10T05:53:13.422Z,15.10
2018-05-10T05:55:41.011Z,15.10
2018-05-10T05:58:08.584Z,15.10
2018-05-10T06:00:36.103Z,15.10
2018-05-10T06:03:03.614Z,15.20
2018-05-10T06:05:31.919Z,15.30
2018-05-10T06:08:00.223Z,15.40
2018-05-10T06:10:27.773Z,15.40
2018-05-10T06:12:55.339Z,15.50
2018-05-10T06:15:22.879Z,15.60
2018-05-10T06:17:51.161Z,15.70
2018-05-10T06:20:19.481Z,15.70
2018-05-10T06:22:48.049Z,15.70
2018-05-10T06:25:15.655Z,15.80
2018-05-10T06:27:43.183Z,15.90
2018-05-10T06:30:10.725Z,16.00
2018-05-10T06:32:39.044Z,16.00
2018-05-10T06:35:06.565Z,16.00
2018-05-10T06:37:34.117Z,16.20
2018-05-10T06:40:01.656Z,16.20
2018-05-10T06:42:29.305Z,16.30
2018-05-10T06:44:57.189Z,16.50
2018-05-10T06:47:24.789Z,16.60
2018-05-10T06:49:52.326Z,16.80
2018-05-10T06:52:19.967Z,16.80
2018-05-10T06:54:47.529Z,17.00
2018-05-10T06:57:15.085Z,16.90
2018-05-10T06:59:42.639Z,17.00
2018-05-10T07:02:10.924Z,17.00
2018-05-10T07:04:39.325Z,17.20
2018-05-10T07:07:06.873Z,17.10
2018-05-10T07:09:35.248Z,17.20
2018-05-10T07:12:02.735Z,17.20
2018-05-10T07:14:30.299Z,17.20
2018-05-10T07:16:57.868Z,17.20
2018-05-10T07:19:25.426Z,17.50
2018-05-10T07:21:52.939Z,17.60
2018-05-10T07:24:20.488Z,17.90
2018-05-10T07:26:48.013Z,17.90
2018-05-10T07:29:15.545Z,18.10
2018-05-10T07:31:43.104Z,18.30
2018-05-10T07:34:11.408Z,18.00
2018-05-10T07:36:39.817Z,18.00
2018-05-10T07:39:07.380Z,18.00
2018-05-10T07:41:34.950Z,18.10
2018-05-10T07:44:02.481Z,18.30
2018-05-10T07:46:30.889Z,18.60
2018-05-10T07:48:58.454Z,18.60
2018-05-10T07:51:26.008Z,18.90
2018-05-10T07:53:53.539Z,19.20
2018-05-10T07:56:21.061Z,19.40
2018-05-10T07:58:48.619Z,19.60
2018-05-10T08:01:16.181Z,19.70
2018-05-10T08:03:43.738Z,19.70
2018-05-10T08:06:11.308Z,19.80
2018-05-10T08:08:38.836Z,19.70
2018-05-10T08:11:07.139Z,19.40
2018-05-10T08:13:35.452Z,19.80
2018-05-10T08:16:02.982Z,19.80
2018-05-10T08:18:30.520Z,20.00
2018-05-10T08:20:58.942Z,20.40
2018-05-10T08:23:26.480Z,20.40
2018-05-10T08:25:54.894Z,20.40
2018-05-10T08:28:22.455Z,20.40
2018-05-10T08:30:49.997Z,20.20
2018-05-10T08:33:18.302Z,19.80
2018-05-10T08:35:45.864Z,19.80
2018-05-10T08:38:13.434Z,19.70
2018-05-10T08:40:40.975Z,19.80
2018-05-10T08:43:09.387Z,19.90
2018-05-10T08:45:36.868Z,19.90
2018-05-10T08:48:04.609Z,20.20
2018-05-10T08:50:32.157Z,20.30
2018-05-10T08:53:00.558Z,20.80
2018-05-10T08:55:28.102Z,20.80
2018-05-10T08:57:56.402Z,20.80
2018-05-10T09:00:23.942Z,20.80
2018-05-10T09:02:52.274Z,21.10
2018-05-10T09:05:19.832Z,21.10
2018-05-10T09:07:48.119Z,21.30
2018-05-10T09:10:15.646Z,21.20
2018-05-10T09:12:43.210Z,21.40
2018-05-10T09:15:10.759Z,21.50
2018-05-10T09:17:39.075Z,22.00
2018-05-10T09:20:06.612Z,22.00
2018-05-10T09:22:35.017Z,22.40
2018-05-10T09:25:02.594Z,22.30
2018-05-10T09:27:30.248Z,22.40
2018-05-10T09:29:57.803Z,22.30
2018-05-10T09:32:25.331Z,22.30
2018-05-10T09:34:52.914Z,22.10
2018-05-10T09:37:21.247Z,21.70
2018-05-10T09:39:48.789Z,21.70
2018-05-10T09:42:16.350Z,21.60
2018-05-10T09:44:44.020Z,21.60
2018-05-10T09:47:11.565Z,21.60
2018-05-10T09:49:39.908Z,21.80
2018-05-10T09:52:07.545Z,21.80
2018-05-10T09:54:35.198Z,21.80
2018-05-10T09:57:02.742Z,21.90
2018-05-10T09:59:30.283Z,22.00
2018-05-10T10:01:57.841Z,21.90
2018-05-10T10:04:26.123Z,22.10
2018-05-10T10:06:53.697Z,22.00
2018-05-10T10:09:21.229Z,22.20
2018-05-10T10:11:48.867Z,22.30
2018-05-10T10:14:16.413Z,22.30
2018-05-10T10:16:44.739Z,22.20
2018-05-10T10:19:12.389Z,22.20
2018-05-10T10:21:40.052Z,22.30
2018-05-10T10:24:07.582Z,22.30
2018-05-10T10:26:35.889Z,22.60
2018-05-10T10:29:03.433Z,22.50
2018-05-10T10:31:31.753Z,22.70
2018-05-10T10:33:59.305Z,22.70
2018-05-10T10:36:26.848Z,22.70
2018-05-10T10:38:55.166Z,22.70
2018-05-10T10:41:22.710Z,22.70
2018-05-10T10:43:50.259Z,22.50
2018-05-10T10:46:18.601Z,22.10
2018-05-10T10:48:46.169Z,22.10
2018-05-10T10:51:13.728Z,22.00
2018-05-10T10:53:41.252Z,21.70
2018-05-10T10:56:08.924Z,21.80
2018-05-10T10:58:36.484Z,21.70
2018-05-10T11:01:04.024Z,21.70
2018-05-10T11:03:32.351Z,21.60
2018-05-10T11:05:59.911Z,21.50
2018-05-10T11:08:27.469Z,21.50
2018-05-10T11:10:54.997Z,21.50
2018-05-10T11:13:23.313Z,21.50
2018-05-10T11:15:50.884Z,21.50
2018-05-10T11:18:18.449Z,21.80
2018-05-10T11:20:46.094Z,21.80
2018-05-10T11:23:13.582Z,21.90
2018-05-10T11:25:41.173Z,21.90
2018-05-10T11:28:08.795Z,21.90
2018-05-10T11:30:36.363Z,21.90
2018-05-10T11:33:03.921Z,21.90
2018-05-10T11:35:32.363Z,21.80
2018-05-10T11:37:59.895Z,21.70
2018-05-10T11:40:27.461Z,21.40
2018-05-10T11:42:55.024Z,21.30
2018-05-10T11:45:22.585Z,21.10
2018-05-10T11:47:50.232Z,21.20
2018-05-10T11:50:17.757Z,21.30
2018-05-10T11:52:45.290Z,21.30
2018-05-10T11:55:12.820Z,21.30
2018-05-10T11:57:40.452Z,21.30
2018-05-10T12:00:07.918Z,21.30
2018-05-10T12:02:36.388Z,21.40
2018-05-10T12:05:03.883Z,21.30
2018-05-10T12:07:31.473Z,21.60
2018-05-10T12:09:59.045Z,21.60
2018-05-10T12:12:26.590Z,21.40
2018-05-10T12:14:54.157Z,21.50
2018-05-10T12:17:21.673Z,21.50
2018-05-10T12:19:49.237Z,21.50
2018-05-10T12:22:16.770Z,21.30
2018-05-10T12:24:44.340Z,20.90
2018-05-10T12:27:11.979Z,20.80
2018-05-10T12:29:39.550Z,20.80
2018-05-10T12:32:07.114Z,20.70
2018-05-10T12:34:34.780Z,20.80
2018-05-10T12:37:02.334Z,20.90
2018-05-10T12:39:29.875Z,20.80
2018-05-10T12:41:58.287Z,20.90
2018-05-10T12:44:25.833Z,20.90
2018-05-10T12:46:54.240Z,21.00
2018-05-10T12:49:21.769Z,20.90
2018-05-10T12:51:50.095Z,20.70
2018-05-10T12:54:17.707Z,20.70
2018-05-10T12:56:45.257Z,20.60
2018-05-10T12:59:12.804Z,20.70
2018-05-10T13:01:40.441Z,20.70
2018-05-10T13:04:07.988Z,20.70
2018-05-10T13:06:35.530Z,20.70
2018-05-10T13:09:03.143Z,20.80
2018-05-10T13:11:30.679Z,21.00
2018-05-10T13:13:58.995Z,21.00
2018-05-10T13:16:26.559Z,21.00
2018-05-10T13:18:54.137Z,21.00
2018-05-10T13:21:21.684Z,21.10
2018-05-10T13:23:49.347Z,20.80
2018-05-10T13:26:16.885Z,20.90
2018-05-10T13:28:45.289Z,21.50
2018-05-10T13:31:12.854Z,21.50
2018-05-10T13:33:40.376Z,21.70
2018-05-10T13:36:08.718Z,22.00
2018-05-10T13:38:36.242Z,22.00
2018-05-10T13:41:04.037Z,22.20
2018-05-10T13:43:31.565Z,22.30
2018-05-10T13:45:59.879Z,22.00
2018-05-10T13:48:27.462Z,22.00
2018-05-10T13:50:55.046Z,22.10
2018-05-10T13:53:22.590Z,22.30
2018-05-10T13:55:50.242Z,22.60
2018-05-10T13:58:17.906Z,22.70
2018-05-10T14:00:45.420Z,22.60
2018-05-10T14:03:12.957Z,22.60
2018-05-10T14:05:40.500Z,22.50
2018-05-10T14:08:08.050Z,22.20
2018-05-10T14:10:35.729Z,22.20
2018-05-10T14:13:03.311Z,22.20
2018-05-10T14:15:30.870Z,22.20
2018-05-10T14:17:58.413Z,22.40
2018-05-10T14:20:25.965Z,22.60
2018-05-10T14:22:54.375Z,22.60
2018-05-10T14:25:21.932Z,22.60
2018-05-10T14:27:49.489Z,22.40
2018-05-10T14:30:17.153Z,22.40
2018-05-10T14:32:44.834Z,22.30
2018-05-10T14:35:12.300Z,22.10
2018-05-10T14:37:39.831Z,22.10
2018-05-10T14:40:08.222Z,22.10
2018-05-10T14:42:36.528Z,22.00
2018-05-10T14:45:04.105Z,22.00
2018-05-10T14:47:31.654Z,22.00
2018-05-10T14:49:59.177Z,21.90
2018-05-10T14:52:26.722Z,21.80
2018-05-10T14:54:54.267Z,21.70
2018-05-10T14:57:21.815Z,21.70
2018-05-10T14:59:49.392Z,21.70
2018-05-10T15:02:16.952Z,21.80
2018-05-10T15:04:44.607Z,21.90
2018-05-10T15:07:12.172Z,21.80
2018-05-10T15:09:39.708Z,21.50
2018-05-10T15:12:08.017Z,21.20
2018-05-10T15:14:35.565Z,21.10
2018-05-10T15:17:03.185Z,21.00
2018-05-10T15:19:32.233Z,20.70
2018-05-10T15:21:59.774Z,20.70
2018-05-10T15:24:28.170Z,20.60
2018-05-10T15:26:56.497Z,20.60
2018-05-10T15:29:24.045Z,20.50
2018-05-10T15:31:51.590Z,20.50
2018-05-10T15:34:19.251Z,20.20
2018-05-10T15:36:47.561Z,19.70
2018-05-10T15:39:15.203Z,19.60
2018-05-10T15:41:42.679Z,19.30
2018-05-10T15:44:10.216Z,19.10
2018-05-10T15:46:38.637Z,18.40
2018-05-10T15:49:06.195Z,18.40
2018-05-10T15:51:33.783Z,18.40
2018-05-10T15:54:01.323Z,18.50
2018-05-10T15:56:28.896Z,18.50
2018-05-10T15:58:56.431Z,18.50
2018-05-10T16:01:24.760Z,18.60
2018-05-10T16:03:52.401Z,18.60
2018-05-10T16:06:19.938Z,18.70
2018-05-10T16:08:48.353Z,18.70
2018-05-10T16:11:15.995Z,18.70
2018-05-10T16:13:43.578Z,18.60
2018-05-10T16:16:11.119Z,18.50
2018-05-10T16:18:39.439Z,18.50
2018-05-10T16:21:07.096Z,18.40
2018-05-10T16:23:34.691Z,18.50
2018-05-10T16:26:02.325Z,18.60
2018-05-10T16:28:29.863Z,18.40
2018-05-10T16:30:58.246Z,18.00
2018-05-10T16:33:25.940Z,18.00
2018-05-10T16:35:53.562Z,18.00
2018-05-10T16:38:21.177Z,17.90
2018-05-10T16:40:48.769Z,17.80
2018-05-10T16:43:16.402Z,17.80
2018-05-10T16:45:44.003Z,17.60
2018-05-10T16:48:11.538Z,17.70
2018-05-10T16:50:39.084Z,17.60
2018-05-10T16:53:06.671Z,17.60
2018-05-10T16:55:34.223Z,17.40
2018-05-10T16:58:01.803Z,17.50
2018-05-10T17:00:29.448Z,17.40
2018-05-10T17:02:57.034Z,17.40
2018-05-10T17:05:24.581Z,17.40
2018-05-10T17:07:52.143Z,17.30
2018-05-10T17:10:19.715Z,17.20
2018-05-10T17:12:47.383Z,17.20
2018-05-10T17:15:15.048Z,17.10
2018-05-10T17:17:42.713Z,17.10
2018-05-10T17:20:10.347Z,17.00
2018-05-10T17:22:38.763Z,17.10
2018-05-10T17:25:06.432Z,17.10
2018-05-10T17:27:35.662Z,17.10
2018-05-10T17:30:03.330Z,17.10
2018-05-10T17:32:30.954Z,17.10
2018-05-10T17:34:58.879Z,17.10
2018-05-10T17:37:26.504Z,17.20
2018-05-10T17:39:55.151Z,17.20
2018-05-10T17:42:22.864Z,17.10
2018-05-10T17:44:50.476Z,17.20
2018-05-10T17:47:19.126Z,17.10
2018-05-10T17:49:46.886Z,17.10
2018-05-10T17:52:15.492Z,17.10
2018-05-10T17:54:43.762Z,16.90
2018-05-10T17:57:12.095Z,17.00
2018-05-10T17:59:39.800Z,16.90
2018-05-10T18:02:08.042Z,16.90
2018-05-10T18:04:37.397Z,16.90
2018-05-10T18:07:05.012Z,16.80
2018-05-10T18:09:33.413Z,16.80
2018-05-10T18:12:01.830Z,16.80
2018-05-10T18:14:29.453Z,16.70
2018-05-10T18:16:57.979Z,16.70
2018-05-10T18:19:25.638Z,16.70
2018-05-10T18:21:53.314Z,16.70
2018-05-10T18:24:20.991Z,16.70
2018-05-10T18:26:48.691Z,16.60
2018-05-10T18:29:16.335Z,16.60
2018-05-10T18:31:44.184Z,16.60
2018-05-10T18:34:12.064Z,16.60
2018-05-10T18:36:39.935Z,16.50
2018-05-10T18:39:07.801Z,16.60
2018-05-10T18:41:36.390Z,16.60
2018-05-10T18:44:04.057Z,16.50
2018-05-10T18:46:32.053Z,16.50
2018-05-10T18:48:59.799Z,16.50
2018-05-10T18:51:27.788Z,16.50
2018-05-10T18:53:57.409Z,16.50
2018-05-10T18:56:25.561Z,16.50
2018-05-10T18:58:54.075Z,16.50
2018-05-10T19:01:21.932Z,16.50
2018-05-10T19:03:51.026Z,16.50
2018-05-10T19:06:19.719Z,16.40
2018-05-10T19:08:48.524Z,16.30
2018-05-10T19:11:16.388Z,16.30
2018-05-10T19:13:45.610Z,16.30
2018-05-10T19:16:14.293Z,16.30
2018-05-10T19:18:42.167Z,16.30
2018-05-10T19:21:10.805Z,16.30
2018-05-10T19:23:38.712Z,16.30
2018-05-10T19:26:06.580Z,16.30
2018-05-10T19:28:34.555Z,16.30
2018-05-10T19:31:02.246Z,16.30
2018-05-10T19:33:30.190Z,16.20
2018-05-10T19:35:57.976Z,16.10
2018-05-10T19:38:26.557Z,16.20
2018-05-10T19:40:54.347Z,16.20
2018-05-10T19:43:23.071Z,16.10
2018-05-10T19:45:51.899Z,16.10
2018-05-10T19:48:19.774Z,16.10
2018-05-10T19:50:47.572Z,16.10
2018-05-10T19:53:15.432Z,16.10
2018-05-10T19:55:44.013Z,16.10
2018-05-10T19:58:12.802Z,16.10
2018-05-10T20:00:41.077Z,16.10
2018-05-10T20:03:08.943Z,16.10
2018-05-10T20:05:37.106Z,16.00
2018-05-10T20:08:05.719Z,16.00
2018-05-10T20:10:33.588Z,16.00
2018-05-10T20:13:01.381Z,15.90
2018-05-10T20:15:29.538Z,15.90
2018-05-10T20:17:58.221Z,15.80
2018-05-10T20:20:25.872Z,15.80
2018-05-10T20:22:54.141Z,15.80
2018-05-10T20:25:22.519Z,15.80
2018-05-10T20:27:50.922Z,15.80
2018-05-10T20:30:18.925Z,15.70
2018-05-10T20:32:46.676Z,15.70
2018-05-10T20:35:14.320Z,15.60
2018-05-10T20:37:42.009Z,15.60
2018-05-10T20:40:09.630Z,15.50
2018-05-10T20:42:38.573Z,15.40
2018-05-10T20:45:06.226Z,15.40
2018-05-10T20:47:34.007Z,15.40
2018-05-10T20:50:01.634Z,15.40
2018-05-10T20:52:30.055Z,15.20
2018-05-10T20:54:57.659Z,15.10
2018-05-10T20:57:25.911Z,15.00
2018-05-10T20:59:53.501Z,14.90
2018-05-10T21:02:21.068Z,14.60
2018-05-10T21:04:48.611Z,14.50
2018-05-10T21:07:16.156Z,14.30
2018-05-10T21:09:43.722Z,14.20
2018-05-10T21:12:23.363Z,14.00
2018-05-10T21:14:50.902Z,13.80
2018-05-10T21:17:19.234Z,13.70
2018-05-10T21:19:46.778Z,13.60
2018-05-10T21:22:14.304Z,13.50
2018-05-10T21:24:42.782Z,13.40
2018-05-10T21:27:10.360Z,13.40
2018-05-10T21:29:39.607Z,13.20
2018-05-10T21:32:07.165Z,13.20
2018-05-10T21:34:34.718Z,13.10
2018-05-10T21:37:02.266Z,13.10
2018-05-10T21:39:30.594Z,13.00
2018-05-10T21:41:58.135Z,12.90
2018-05-10T21:44:25.697Z,12.90
2018-05-10T21:46:53.231Z,12.90
2018-05-10T21:49:33.482Z,12.90
2018-05-10T21:52:01.772Z,12.90
2018-05-10T21:54:30.184Z,12.80
2018-05-10T21:56:57.773Z,12.80
2018-05-10T21:59:25.334Z,12.80
2018-05-10T22:01:52.875Z,12.80
2018-05-10T22:04:20.540Z,12.70
2018-05-10T22:06:48.177Z,12.70
2018-05-10T22:09:15.655Z,12.60
2018-05-10T22:11:43.215Z,12.50
2018-05-10T22:14:10.749Z,12.40
2018-05-10T22:16:38.287Z,12.40
2018-05-10T22:19:05.843Z,12.30
2018-05-10T22:21:33.381Z,12.20
2018-05-10T22:24:00.927Z,12.20
2018-05-10T22:26:29.234Z,12.00
2018-05-10T22:28:56.761Z,12.00
2018-05-10T22:31:24.282Z,11.90
2018-05-10T22:33:51.867Z,11.80
2018-05-10T22:36:19.492Z,11.70
2018-05-10T22:38:47.058Z,11.70
2018-05-10T22:41:14.727Z,11.60
2018-05-10T22:43:42.227Z,11.50
2018-05-10T22:46:09.767Z,11.40
2018-05-10T22:48:37.314Z,11.40
2018-05-10T22:51:04.860Z,11.40
2018-05-10T22:53:33.162Z,11.30
2018-05-10T22:56:00.778Z,11.30
2018-05-10T22:58:28.288Z,11.30
2018-05-10T23:00:55.956Z,11.30
2018-05-10T23:03:23.484Z,11.20
2018-05-10T23:05:51.778Z,11.10
2018-05-10T23:08:20.083Z,11.00
2018-05-10T23:10:47.607Z,11.00
2018-05-10T23:13:15.167Z,11.00
2018-05-10T23:15:42.679Z,10.90
2018-05-10T23:18:10.239Z,10.80
2018-05-10T23:20:37.767Z,10.80
2018-05-10T23:23:05.311Z,10.80
2018-05-10T23:25:32.935Z,10.70
2018-05-10T23:28:00.485Z,10.70
2018-05-10T23:30:28.019Z,10.60
2018-05-10T23:32:55.584Z,10.60
2018-05-10T23:35:23.115Z,10.50
2018-05-10T23:37:50.651Z,10.50
2018-05-10T23:40:18.193Z,10.50
2018-05-10T23:42:46.499Z,10.50
2018-05-10T23:45:14.064Z,10.40
2018-05-10T23:47:41.594Z,10.40
2018-05-10T23:50:09.913Z,10.40
2018-05-10T23:52:37.447Z,10.30
2018-05-10T23:55:05.760Z,10.30
2018-05-10T23:57:33.420Z,10.30
